createdAt,value
2024-04-15T00:00:49.092Z,17.50
2024-04-15T00:03:16.317Z,17.50
2024-04-15T00:05:43.512Z,17.40
2024-04-15T00:08:10.543Z,17.40
2024-04-15T00:10:38.700Z,17.40
2024-04-15T00:13:05.803Z,17.40
2024-04-15T00:15:33.101Z,17.30
2024-04-15T00:18:00.244Z,17.20
2024-04-15T00:20:30.940Z,17.20
2024-04-15T00:22:59.535Z,17.20
2024-04-15T00:25:26.651Z,17.20
2024-04-15T00:27:53.782Z,17.10
2024-04-15T00:30:20.873Z,17.00
2024-04-15T00:32:47.956Z,17.00
2024-04-15T00:35:15.259Z,17.00
2024-04-15T00:37:42.381Z,17.00
2024-04-15T00:40:10.319Z,17.00
2024-04-15T00:42:37.427Z,16.90
2024-04-15T00:45:28.323Z,16.90
2024-04-15T00:47:55.612Z,16.70
2024-04-15T00:50:23.165Z,16.70
2024-04-15T00:52:50.274Z,16.70
2024-04-15T00:55:17.995Z,16.70
2024-04-15T00:57:45.183Z,16.80
2024-04-15T01:00:15.614Z,16.80
2024-04-15T01:02:44.424Z,16.80
2024-04-15T01:05:11.836Z,16.70
2024-04-15T01:07:39.405Z,16.70
2024-04-15T01:10:07.086Z,16.70
2024-04-15T01:12:34.802Z,16.60
2024-04-15T01:15:02.053Z,16.60
2024-04-15T01:17:29.167Z,16.50
2024-04-15T01:20:00.530Z,16.50
2024-04-15T01:22:41.518Z,16.40
2024-04-15T01:25:08.616Z,16.40
2024-04-15T01:27:35.960Z,16.40
2024-04-15T01:30:03.074Z,16.40
2024-04-15T01:32:30.219Z,16.30
2024-04-15T01:34:57.301Z,16.40
2024-04-15T01:37:24.371Z,16.30
2024-04-15T01:39:51.451Z,16.40
2024-04-15T01:42:18.517Z,16.30
2024-04-15T01:44:45.572Z,16.30
2024-04-15T01:47:12.704Z,16.30
2024-04-15T01:49:39.753Z,16.20
2024-04-15T01:52:06.988Z,16.20
2024-04-15T01:54:34.070Z,16.30
2024-04-15T01:57:01.342Z,16.20
2024-04-15T01:59:28.422Z,16.20
2024-04-15T02:01:55.527Z,16.20
2024-04-15T02:04:22.726Z,16.20
2024-04-15T02:06:49.885Z,16.10
2024-04-15T02:09:16.989Z,16.10
2024-04-15T02:11:44.021Z,16.10
2024-04-15T02:14:11.107Z,16.10
2024-04-15T02:16:38.166Z,16.00
2024-04-15T02:19:05.251Z,16.00
2024-04-15T02:21:32.432Z,16.00
2024-04-15T02:23:59.529Z,16.10
2024-04-15T02:26:26.597Z,16.00
2024-04-15T02:28:53.698Z,15.90
2024-04-15T02:31:20.876Z,15.90
2024-04-15T02:33:48.017Z,15.80
2024-04-15T02:36:15.031Z,15.80
2024-04-15T02:38:42.076Z,15.80
2024-04-15T02:41:09.219Z,15.80
2024-04-15T02:43:54.715Z,15.70
2024-04-15T02:46:21.857Z,15.80
2024-04-15T02:48:49.005Z,15.80
2024-04-15T02:51:16.071Z,15.80
2024-04-15T02:53:43.150Z,15.70
2024-04-15T02:56:10.218Z,15.70
2024-04-15T02:58:37.471Z,15.70
2024-04-15T03:01:04.678Z,15.70
2024-04-15T03:03:31.804Z,15.60
2024-04-15T03:05:58.895Z,15.60
2024-04-15T03:08:25.949Z,15.60
2024-04-15T03:10:53.077Z,15.60
2024-04-15T03:13:20.591Z,15.50
2024-04-15T03:15:55.146Z,15.50
2024-04-15T03:18:22.665Z,15.40
2024-04-15T03:20:49.759Z,15.40
2024-04-15T03:23:16.809Z,15.40
2024-04-15T03:25:43.930Z,15.30
2024-04-15T03:28:11.064Z,15.30
2024-04-15T03:30:38.220Z,15.30
2024-04-15T03:33:05.572Z,15.30
2024-04-15T03:35:32.748Z,15.20
2024-04-15T03:37:59.805Z,15.20
2024-04-15T03:40:27.973Z,15.20
2024-04-15T03:42:55.064Z,15.30
2024-04-15T03:45:22.243Z,15.30
2024-04-15T03:47:49.372Z,15.30
2024-04-15T03:50:16.687Z,15.20
2024-04-15T03:52:44.020Z,15.10
2024-04-15T03:55:11.112Z,15.10
2024-04-15T03:57:38.417Z,15.10
2024-04-15T04:00:05.930Z,15.10
2024-04-15T04:02:33.055Z,15.10
2024-04-15T04:05:00.340Z,14.80
2024-04-15T04:07:27.461Z,14.80
2024-04-15T04:09:55.202Z,14.90
2024-04-15T04:12:22.375Z,14.90
2024-04-15T04:14:49.430Z,14.90
2024-04-15T04:17:16.558Z,14.90
2024-04-15T04:19:44.111Z,14.90
2024-04-15T04:22:11.231Z,14.90
2024-04-15T04:24:38.902Z,14.90
2024-04-15T04:27:06.048Z,14.90
2024-04-15T04:29:36.391Z,14.90
2024-04-15T04:32:04.408Z,14.90
2024-04-15T04:34:31.537Z,14.80
2024-04-15T04:36:58.624Z,14.90
2024-04-15T04:39:25.679Z,14.90
2024-04-15T04:41:53.505Z,14.90
2024-04-15T04:44:20.895Z,14.80
2024-04-15T04:46:50.098Z,14.80
2024-04-15T04:49:17.170Z,14.70
2024-04-15T04:51:44.413Z,14.60
2024-04-15T04:54:16.100Z,14.70
2024-04-15T04:56:44.489Z,14.80
2024-04-15T04:59:11.594Z,14.80
2024-04-15T05:01:40.513Z,14.80
2024-04-15T05:04:09.935Z,14.90
2024-04-15T05:06:38.326Z,14.80
2024-04-15T05:09:07.201Z,14.90
2024-04-15T05:11:35.552Z,14.90
2024-04-15T05:14:02.659Z,14.90
2024-04-15T05:16:30.924Z,14.80
2024-04-15T05:18:58.093Z,14.90
2024-04-15T05:21:25.263Z,14.90
2024-04-15T05:23:52.327Z,14.90
2024-04-15T05:26:19.434Z,15.00
2024-04-15T05:28:46.515Z,15.00
2024-04-15T05:31:13.657Z,15.10
2024-04-15T05:33:40.979Z,15.10
2024-04-15T05:36:08.246Z,15.10
2024-04-15T05:38:35.365Z,15.10
2024-04-15T05:41:02.453Z,15.10
2024-04-15T05:43:29.828Z,15.10
2024-04-15T05:45:57.074Z,15.20
2024-04-15T05:48:24.813Z,15.20
2024-04-15T05:50:51.959Z,15.20
2024-04-15T05:53:19.006Z,15.30
2024-04-15T05:55:46.040Z,15.40
2024-04-15T05:58:13.185Z,15.40
2024-04-15T06:00:40.627Z,15.40
2024-04-15T06:03:07.684Z,15.50
2024-04-15T06:05:34.777Z,15.50
2024-04-15T06:08:01.958Z,15.60
2024-04-15T06:10:29.211Z,15.60
2024-04-15T06:12:56.390Z,15.60
2024-04-15T06:15:23.551Z,15.70
2024-04-15T06:17:50.634Z,15.70
2024-04-15T06:20:20.412Z,15.80
2024-04-15T06:22:49.470Z,15.80
2024-04-15T06:25:16.656Z,15.80
2024-04-15T06:27:43.758Z,15.90
2024-04-15T06:30:11.920Z,16.00
2024-04-15T06:32:39.193Z,16.00
2024-04-15T06:35:08.520Z,16.00
2024-04-15T06:37:37.656Z,16.10
2024-04-15T06:40:05.042Z,16.10
2024-04-15T06:42:32.172Z,16.20
2024-04-15T06:44:59.242Z,16.30
2024-04-15T06:47:26.306Z,16.30
2024-04-15T06:49:53.419Z,16.30
2024-04-15T06:52:20.986Z,16.40
2024-04-15T06:54:49.054Z,16.40
2024-04-15T06:57:16.127Z,16.40
2024-04-15T06:59:43.249Z,16.50
2024-04-15T07:02:12.418Z,16.50
2024-04-15T07:04:39.668Z,16.50
2024-04-15T07:07:06.797Z,16.60
2024-04-15T07:09:33.914Z,16.60
2024-04-15T07:12:03.592Z,16.70
2024-04-15T07:14:30.702Z,16.70
2024-04-15T07:16:58.010Z,16.80
2024-04-15T07:19:25.314Z,16.90
2024-04-15T07:21:52.419Z,17.00
2024-04-15T07:24:20.246Z,17.00
2024-04-15T07:26:47.387Z,17.10
2024-04-15T07:29:14.503Z,17.20
2024-04-15T07:31:41.658Z,17.20
2024-04-15T07:34:09.280Z,17.30
2024-04-15T07:36:36.398Z,17.40
2024-04-15T07:39:03.779Z,17.40
2024-04-15T07:41:30.860Z,17.50
2024-04-15T07:43:57.930Z,17.60
2024-04-15T07:46:25.040Z,17.60
2024-04-15T07:48:52.275Z,17.70
2024-04-15T07:51:19.424Z,17.80
2024-04-15T07:53:46.553Z,17.90
2024-04-15T07:56:13.864Z,18.00
2024-04-15T07:58:42.246Z,18.10
2024-04-15T08:01:09.391Z,18.10
2024-04-15T08:03:36.565Z,18.20
2024-04-15T08:06:04.171Z,18.30
2024-04-15T08:08:31.219Z,18.40
2024-04-15T08:10:58.575Z,18.50
2024-04-15T08:13:25.753Z,18.60
2024-04-15T08:15:52.917Z,18.70
2024-04-15T08:18:20.053Z,18.80
2024-04-15T08:20:55.486Z,18.90
2024-04-15T08:23:22.586Z,19.00
2024-04-15T08:25:57.163Z,19.00
2024-04-15T08:28:25.428Z,19.10
2024-04-15T08:30:52.707Z,19.30
2024-04-15T08:33:19.930Z,19.40
2024-04-15T08:35:47.133Z,19.60
2024-04-15T08:38:14.293Z,19.70
2024-04-15T08:40:53.394Z,19.80
2024-04-15T08:43:23.848Z,19.90
2024-04-15T08:46:18.057Z,20.00
2024-04-15T08:48:45.659Z,20.10
2024-04-15T08:51:12.795Z,20.20
2024-04-15T08:53:40.087Z,20.30
2024-04-15T08:56:08.067Z,20.40
2024-04-15T08:58:36.486Z,20.50
2024-04-15T09:01:06.891Z,20.60
2024-04-15T09:03:34.019Z,20.70
2024-04-15T09:06:01.163Z,20.90
2024-04-15T09:08:28.269Z,21.00
2024-04-15T09:10:55.472Z,21.10
2024-04-15T09:13:22.757Z,21.20
2024-04-15T09:15:51.317Z,21.40
2024-04-15T09:18:19.721Z,21.50
2024-04-15T09:20:57.987Z,21.50
2024-04-15T09:23:29.674Z,21.70
2024-04-15T09:25:56.703Z,21.70
2024-04-15T09:28:24.209Z,21.90
2024-04-15T09:30:51.362Z,21.90
2024-04-15T09:33:22.760Z,22.00
2024-04-15T09:35:49.924Z,22.20
2024-04-15T09:38:19.038Z,22.30
2024-04-15T09:40:46.581Z,22.40
2024-04-15T09:43:13.681Z,22.50
2024-04-15T09:45:40.693Z,22.60
2024-04-15T09:48:11.904Z,22.70
2024-04-15T09:50:42.935Z,22.80
2024-04-15T09:53:13.693Z,22.80
2024-04-15T09:55:45.062Z,22.90
2024-04-15T09:58:18.395Z,23.10
2024-04-15T10:00:46.682Z,23.20
2024-04-15T10:03:17.084Z,23.20
2024-04-15T10:05:45.554Z,23.30
2024-04-15T10:08:13.260Z,23.40
2024-04-15T10:10:42.495Z,23.50
2024-04-15T10:13:11.000Z,23.50
2024-04-15T10:15:40.132Z,23.50
2024-04-15T10:18:09.674Z,23.60
2024-04-15T10:20:37.867Z,23.70
2024-04-15T10:23:07.562Z,23.80
2024-04-15T10:25:35.879Z,23.80
2024-04-15T10:28:03.098Z,23.90
2024-04-15T10:30:31.712Z,24.00
2024-04-15T10:33:03.571Z,24.10
2024-04-15T10:35:33.033Z,24.30
2024-04-15T10:38:00.895Z,24.30
2024-04-15T10:40:37.916Z,24.40
2024-04-15T10:43:06.184Z,24.40
2024-04-15T10:45:33.578Z,24.40
2024-04-15T10:48:01.100Z,24.50
2024-04-15T10:50:28.198Z,24.50
2024-04-15T10:52:55.198Z,24.60
2024-04-15T10:55:23.662Z,24.60
2024-04-15T10:57:51.567Z,24.70
2024-04-15T11:00:19.974Z,24.80
2024-04-15T11:02:51.556Z,24.80
2024-04-15T11:05:21.493Z,24.80
2024-04-15T11:07:48.826Z,24.90
2024-04-15T11:10:16.347Z,25.00
2024-04-15T11:12:43.389Z,25.10
2024-04-15T11:15:11.248Z,25.00
2024-04-15T11:17:51.726Z,25.00
2024-04-15T11:20:20.157Z,25.00
2024-04-15T11:22:48.627Z,25.00
2024-04-15T11:25:16.583Z,25.00
2024-04-15T11:27:47.536Z,25.10
2024-04-15T11:30:22.202Z,25.10
2024-04-15T11:32:51.577Z,25.10
2024-04-15T11:35:19.079Z,25.20
2024-04-15T11:37:53.249Z,25.30
2024-04-15T11:40:20.748Z,25.30
2024-04-15T11:42:47.962Z,25.40
2024-04-15T11:45:16.051Z,25.30
2024-04-15T11:47:43.137Z,25.20
2024-04-15T11:50:11.840Z,25.20
2024-04-15T11:52:39.303Z,25.20
2024-04-15T11:55:15.181Z,25.20
2024-04-15T11:57:42.220Z,25.20
2024-04-15T12:00:10.747Z,25.30
2024-04-15T12:02:40.118Z,25.30
2024-04-15T12:05:07.695Z,25.30
2024-04-15T12:07:34.761Z,25.20
2024-04-15T12:10:02.561Z,25.20
2024-04-15T12:12:29.580Z,25.20
2024-04-15T12:14:57.399Z,25.30
2024-04-15T12:17:25.151Z,25.30
2024-04-15T12:19:53.963Z,25.30
2024-04-15T12:22:21.678Z,25.30
2024-04-15T12:27:21.700Z,25.20
2024-04-15T12:29:48.817Z,25.10
2024-04-15T12:32:15.880Z,25.10
2024-04-15T12:34:42.873Z,25.10
2024-04-15T12:37:10.660Z,25.20
2024-04-15T12:39:37.709Z,25.30
2024-04-15T12:42:04.780Z,25.20
2024-04-15T12:44:32.345Z,25.10
2024-04-15T12:47:01.474Z,25.10
2024-04-15T12:49:28.488Z,25.10
2024-04-15T12:51:55.546Z,24.90
2024-04-15T12:54:22.639Z,24.90
2024-04-15T12:56:49.675Z,24.90
2024-04-15T12:59:16.751Z,25.00
2024-04-15T13:01:54.788Z,25.10
2024-04-15T13:04:29.651Z,25.10
2024-04-15T13:06:56.741Z,24.90
2024-04-15T13:09:23.691Z,24.80
2024-04-15T13:11:50.775Z,24.70
2024-04-15T13:14:18.121Z,24.70
2024-04-15T13:16:45.128Z,24.80
2024-04-15T13:19:13.047Z,24.80
2024-04-15T13:21:40.254Z,24.80
2024-04-15T13:24:08.832Z,24.80
2024-04-15T13:26:35.924Z,24.80
2024-04-15T13:29:03.053Z,24.90
2024-04-15T13:31:30.299Z,24.90
2024-04-15T13:33:57.801Z,24.90
2024-04-15T13:36:25.127Z,24.90
2024-04-15T13:38:52.720Z,24.90
2024-04-15T13:41:19.940Z,24.90
2024-04-15T13:43:47.091Z,24.90
2024-04-15T13:46:14.842Z,24.90
2024-04-15T13:48:42.041Z,24.80
2024-04-15T13:51:09.153Z,24.80
2024-04-15T13:53:36.365Z,24.70
2024-04-15T13:56:03.529Z,24.50
2024-04-15T13:58:31.069Z,24.50
2024-04-15T14:00:58.272Z,24.60
2024-04-15T14:03:26.064Z,24.70
2024-04-15T14:05:53.268Z,24.70
2024-04-15T14:08:20.725Z,24.60
2024-04-15T14:10:48.115Z,24.60
2024-04-15T14:13:17.911Z,24.60
2024-04-15T14:15:45.185Z,24.50
2024-04-15T14:18:12.466Z,24.40
2024-04-15T14:20:39.606Z,24.30
2024-04-15T14:23:06.577Z,24.30
2024-04-15T14:25:33.716Z,24.30
2024-04-15T14:28:01.209Z,24.20
2024-04-15T14:30:28.320Z,24.00
2024-04-15T14:32:55.534Z,23.90
2024-04-15T14:35:22.946Z,23.70
2024-04-15T14:37:51.464Z,23.60
2024-04-15T14:40:23.264Z,23.50
2024-04-15T14:42:52.131Z,23.40
2024-04-15T14:45:19.388Z,23.30
2024-04-15T14:47:49.476Z,23.20
2024-04-15T14:50:16.832Z,23.20
2024-04-15T14:52:43.867Z,23.20
2024-04-15T14:55:10.953Z,23.10
2024-04-15T14:57:38.237Z,22.90
2024-04-15T15:00:05.894Z,22.90
2024-04-15T15:02:33.035Z,22.80
2024-04-15T15:05:00.170Z,22.90
2024-04-15T15:07:27.386Z,22.70
2024-04-15T15:09:54.567Z,22.80
2024-04-15T15:12:22.665Z,22.70
2024-04-15T15:14:49.819Z,22.70
2024-04-15T15:17:16.899Z,22.80
2024-04-15T15:19:44.695Z,22.70
2024-04-15T15:22:14.660Z,22.50
2024-04-15T15:24:41.702Z,22.40
2024-04-15T15:27:08.895Z,22.20
2024-04-15T15:29:36.358Z,22.10
2024-04-15T15:32:03.429Z,21.90
2024-04-15T15:34:30.605Z,21.80
2024-04-15T15:36:57.851Z,21.80
2024-04-15T15:39:25.362Z,21.70
2024-04-15T15:41:52.641Z,21.50
2024-04-15T15:44:19.827Z,21.50
2024-04-15T15:46:46.915Z,21.50
2024-04-15T15:49:14.059Z,21.50
2024-04-15T15:51:41.804Z,21.40
2024-04-15T15:54:08.784Z,21.30
2024-04-15T15:56:37.917Z,21.30
2024-04-15T15:59:08.214Z,21.30
2024-04-15T16:01:37.540Z,21.30
2024-04-15T16:04:04.868Z,21.30
2024-04-15T16:06:32.256Z,21.30
2024-04-15T16:08:59.302Z,21.30
2024-04-15T16:11:31.908Z,21.20
2024-04-15T16:14:07.248Z,21.20
2024-04-15T16:16:34.799Z,21.10
2024-04-15T16:19:01.823Z,21.00
2024-04-15T16:21:28.875Z,20.80
2024-04-15T16:23:56.014Z,20.80
2024-04-15T16:26:23.168Z,20.80
2024-04-15T16:28:50.114Z,20.80
2024-04-15T16:31:17.643Z,20.60
2024-04-15T16:33:45.255Z,20.60
2024-04-15T16:36:12.968Z,20.50
2024-04-15T16:38:39.931Z,20.40
2024-04-15T16:41:07.406Z,20.40
2024-04-15T16:43:34.437Z,20.50
2024-04-15T16:46:01.490Z,20.40
2024-04-15T16:48:28.472Z,20.30
2024-04-15T16:50:55.446Z,20.30
2024-04-15T16:53:22.490Z,20.30
2024-04-15T16:55:52.072Z,20.10
2024-04-15T16:58:20.475Z,20.00
2024-04-15T17:00:47.926Z,20.00
2024-04-15T17:03:14.966Z,20.10
2024-04-15T17:05:42.046Z,20.10
2024-04-15T17:08:09.172Z,20.10
2024-04-15T17:10:36.293Z,20.00
2024-04-15T17:13:03.572Z,20.00
2024-04-15T17:15:30.569Z,19.90
2024-04-15T17:17:57.742Z,19.80
2024-04-15T17:20:24.866Z,19.80
2024-04-15T17:22:51.906Z,19.70
2024-04-15T17:25:18.899Z,19.70
2024-04-15T17:27:46.021Z,19.70
2024-04-15T17:30:13.606Z,19.60
2024-04-15T17:32:40.841Z,19.70
2024-04-15T17:35:07.974Z,19.70
2024-04-15T17:37:35.215Z,19.70
2024-04-15T17:40:04.701Z,19.70
2024-04-15T17:42:31.742Z,19.70
2024-04-15T17:44:58.718Z,19.60
2024-04-15T17:47:25.825Z,19.70
2024-04-15T17:49:53.352Z,19.70
2024-04-15T17:52:20.388Z,19.70
2024-04-15T17:54:49.084Z,19.60
2024-04-15T17:57:17.727Z,19.60
2024-04-15T17:59:44.792Z,19.50
2024-04-15T18:02:11.825Z,19.40
2024-04-15T18:04:39.706Z,19.20
2024-04-15T18:07:06.904Z,19.10
2024-04-15T18:09:36.268Z,19.00
2024-04-15T18:12:05.994Z,19.00
2024-04-15T18:14:34.896Z,18.90
2024-04-15T18:17:02.119Z,18.90
2024-04-15T18:19:29.599Z,18.80
2024-04-15T18:21:56.817Z,18.80
2024-04-15T18:24:24.188Z,18.80
2024-04-15T18:26:51.252Z,18.80
2024-04-15T18:29:18.319Z,18.70
2024-04-15T18:31:47.410Z,18.80
2024-04-15T18:34:14.844Z,18.70
2024-04-15T18:36:42.014Z,18.70
2024-04-15T18:39:08.974Z,18.60
2024-04-15T18:41:36.066Z,18.60
2024-04-15T18:44:03.118Z,18.60
2024-04-15T18:46:30.335Z,18.60
2024-04-15T18:48:57.432Z,18.60
2024-04-15T18:51:24.559Z,18.50
2024-04-15T18:53:53.231Z,18.50
2024-04-15T18:56:20.526Z,18.40
2024-04-15T18:58:47.549Z,18.40
2024-04-15T19:01:14.744Z,18.30
2024-04-15T19:03:41.951Z,18.20
2024-04-15T19:06:10.308Z,18.30
2024-04-15T19:08:37.550Z,18.20
2024-04-15T19:11:04.814Z,18.10
2024-04-15T19:13:31.876Z,18.10
2024-04-15T19:15:59.119Z,18.10
2024-04-15T19:18:26.814Z,18.20
2024-04-15T19:20:54.144Z,18.20
2024-04-15T19:23:21.616Z,18.10
2024-04-15T19:25:48.898Z,18.10
2024-04-15T19:28:16.255Z,18.00
2024-04-15T19:30:43.687Z,17.90
2024-04-15T19:33:10.985Z,17.90
2024-04-15T19:35:38.325Z,17.80
2024-04-15T19:38:05.446Z,17.70
2024-04-15T19:40:32.655Z,17.70
2024-04-15T19:43:00.479Z,17.70
2024-04-15T19:45:27.561Z,17.70
2024-04-15T19:47:54.841Z,17.70
2024-04-15T19:50:21.999Z,17.60
2024-04-15T19:52:49.080Z,17.60
2024-04-15T19:55:17.099Z,17.70
2024-04-15T19:57:49.160Z,17.60
2024-04-15T20:00:19.136Z,17.60
2024-04-15T20:02:47.151Z,17.40
2024-04-15T20:05:14.363Z,17.30
2024-04-15T20:07:42.258Z,17.30
2024-04-15T20:10:09.754Z,17.20
2024-04-15T20:12:37.196Z,17.20
2024-04-15T20:15:04.840Z,17.20
2024-04-15T20:17:52.317Z,17.20
2024-04-15T20:20:21.365Z,17.10
2024-04-15T20:22:48.506Z,17.10
2024-04-15T20:25:15.747Z,17.00
2024-04-15T20:27:42.865Z,17.00
2024-04-15T20:30:10.216Z,17.00
2024-04-15T20:32:37.398Z,16.90
2024-04-15T20:35:04.540Z,16.80
2024-04-15T20:37:31.750Z,16.80
2024-04-15T20:39:58.868Z,16.80
2024-04-15T20:42:25.977Z,16.80
2024-04-15T20:44:55.011Z,16.80
2024-04-15T20:47:23.739Z,16.80
2024-04-15T20:49:50.803Z,16.70
2024-04-15T20:52:20.190Z,16.50
2024-04-15T20:54:47.330Z,16.40
2024-04-15T20:57:14.329Z,16.30
2024-04-15T20:59:41.335Z,16.20
2024-04-15T21:02:08.673Z,16.20
2024-04-15T21:04:35.718Z,16.10
2024-04-15T21:07:02.818Z,16.10
2024-04-15T21:09:29.830Z,16.10
2024-04-15T21:11:57.206Z,16.00
2024-04-15T21:14:24.245Z,15.90
2024-04-15T21:16:51.311Z,16.00
2024-04-15T21:19:18.432Z,15.90
2024-04-15T21:21:45.611Z,15.90
2024-04-15T21:24:12.700Z,15.90
2024-04-15T21:26:40.061Z,15.80
2024-04-15T21:29:07.068Z,15.80
2024-04-15T21:31:34.208Z,15.80
2024-04-15T21:34:01.887Z,15.80
2024-04-15T21:36:29.004Z,15.80
2024-04-15T21:38:56.049Z,15.70
2024-04-15T21:41:23.827Z,15.60
2024-04-15T21:43:51.452Z,15.60
2024-04-15T21:46:18.731Z,15.60
2024-04-15T21:48:45.717Z,15.50
2024-04-15T21:51:13.180Z,15.50
2024-04-15T21:53:40.246Z,15.40
2024-04-15T21:56:09.379Z,15.40
2024-04-15T21:58:40.180Z,15.30
2024-04-15T22:01:08.007Z,15.20
2024-04-15T22:03:35.211Z,15.20
2024-04-15T22:06:02.415Z,15.30
2024-04-15T22:08:29.446Z,15.30
2024-04-15T22:10:56.424Z,15.20
2024-04-15T22:13:23.480Z,15.30
2024-04-15T22:15:51.292Z,15.20
2024-04-15T22:18:18.387Z,15.20
2024-04-15T22:20:45.456Z,15.30
2024-04-15T22:23:12.847Z,15.30
2024-04-15T22:25:39.931Z,15.30
2024-04-15T22:28:07.042Z,15.30
2024-04-15T22:30:33.995Z,15.30
2024-04-15T22:33:01.142Z,15.30
2024-04-15T22:35:28.155Z,15.30
2024-04-15T22:37:55.105Z,15.00
2024-04-15T22:40:22.191Z,15.00
2024-04-15T22:42:51.484Z,15.10
2024-04-15T22:45:18.434Z,15.10
2024-04-15T22:47:45.446Z,15.10
2024-04-15T22:50:12.752Z,15.10
2024-04-15T22:52:39.757Z,15.10
2024-04-15T22:55:06.767Z,15.10
2024-04-15T22:57:34.117Z,15.10
2024-04-15T23:00:01.074Z,15.10
2024-04-15T23:02:28.066Z,15.20
2024-04-15T23:04:55.130Z,15.20
2024-04-15T23:07:22.206Z,15.10
2024-04-15T23:09:49.209Z,15.20
2024-04-15T23:12:16.176Z,15.10
2024-04-15T23:14:43.121Z,15.20
2024-04-15T23:17:10.082Z,15.10
2024-04-15T23:19:37.274Z,15.20
2024-04-15T23:22:04.464Z,15.20
2024-04-15T23:24:31.522Z,15.10
2024-04-15T23:26:58.579Z,15.20
2024-04-15T23:29:25.524Z,15.30
2024-04-15T23:31:52.988Z,15.30
2024-04-15T23:34:35.695Z,15.20
2024-04-15T23:37:02.650Z,15.20
2024-04-15T23:39:29.580Z,15.10
2024-04-15T23:41:56.526Z,15.20
2024-04-15T23:44:23.489Z,15.10
2024-04-15T23:47:09.210Z,15.20
2024-04-15T23:49:55.058Z,15.30
2024-04-15T23:52:40.736Z,15.30
2024-04-15T23:55:26.500Z,15.40
2024-04-15T23:57:59.888Z,15.40
